Altenstadt, Germany

7:00 PM CEST on September 02, 2015 (GMT +0200)
Altenstadt Army | | Change Station
CLOSE
Current Station
Airport
Location: Altenstadt,
Elevation: 2425 ft
Nearby Weather Stations

Elev 2425 ft 47.84 °N, 10.87 °E | Updated 40 minutes ago

Light Rain
Light Rain
55 °F
Feels Like 55 °F
N
4
Wind Variable Wind from NE

Today
High -- | Low -- °F
--% Chance of Precip.
Yesterday
High -- | Low -- °F
Precip. -- in
6:35 AM 7:56 PM
Waning Gibbous, 79% visible
Pressure 30.04 in
Visibility 4.3 miles
Clouds Few 500 ft
Mostly Cloudy 700 ft
Mostly Cloudy 1800 ft
Dew Point 54 °F
Humidity 94%
Rainfall 0.00 in
Snow Depth Not available.
UV 1 out of 12
Pollen Not available.
Air Quality Not available.
Flu Activity Not available.
METAR ETHA 021620Z 04003KT 7000 -RA FEW005 BKN007 BKN018 13/12 Q1017 BLACKGRN WHT TEMPO GRN
Pressure 30.04 in
Visibility 4.3 miles
Clouds Few 500 ft
Mostly Cloudy 700 ft
Mostly Cloudy 1800 ft
Dew Point 54 °F
Humidity 94%
Rainfall 0.00 in
Snow Depth Not available.
UV 1 out of 12
Pollen Not available.
Air Quality Not available.
Flu Activity Not available.
METAR ETHA 021620Z 04003KT 7000 -RA FEW005 BKN007 BKN018 13/12 Q1017 BLACKGRN WHT TEMPO GRN

10-Day Weather Forecast

×

Almanac

Astronomy

Sep. 02, 2015 Rise Set
Actual Time
Civil Twilight
Nautical Twilight
Astronomical Twilight
Moon
Length of Visible Light
Length of Day
Tomorrow will be .
, % of the Moon is Illuminated

Today's Extremes

Country Highs Country Lows

Community

WunderPhotos

Upload Photos

1,851,785 photos uploaded!

WunderBlogs® & News

Nearby

Air Quality

  Air Quality AQ Index Pollutant
Not available.

Snow Depth

Station Depth Elevation

Earthquake Activity

City Distance Mag. Time & Date
Minimum magnitude displayed is 2.5.

Coastal Water Temperatures

Place Temperature

Stations

Nearby Weather Stations

Station Location Temp. Windchill Dew Point Humidity Wind Precip. Elev Updated Type